Time;durP1;ratioP1;P1;durP2;ratioP2;P2;SDS_P1;SDS_P2;PMS_P1;PMS_P2;Temp;Humidity;BMP_temperature;BMP_pressure;BME280_temperature;BME280_humidity;BME280_pressure;Samples;Min_cycle;Max_cycle;Signal;HPM_P1;HPM_P2
2021/10/11 00:00:16;;;;;;;6.10;1.92;;;13.60;99.90;;;;;;4987436;28;20124;-37
2021/10/11 00:02:48;;;;;;;5.03;1.98;;;13.60;99.90;;;;;;4978848;28;20015;-36
2021/10/11 00:05:14;;;;;;;4.35;1.90;;;13.60;99.90;;;;;;4984612;28;20058;-36
2021/10/11 00:07:41;;;;;;;8.13;1.70;;;13.60;99.90;;;;;;4981076;28;20030;-36
2021/10/11 00:10:07;;;;;;;5.10;1.80;;;13.60;99.90;;;;;;4982238;28;20030;-37
2021/10/11 00:12:33;;;;;;;3.70;1.70;;;13.60;99.90;;;;;;4982495;28;20023;-37
2021/10/11 00:14:58;;;;;;;4.75;1.88;;;13.60;99.90;;;;;;4980907;28;20026;-37
2021/10/11 00:17:24;;;;;;;1.55;1.40;;;13.60;99.90;;;;;;4984624;28;20392;-37
2021/10/11 00:19:51;;;;;;;3.90;1.90;;;13.60;99.90;;;;;;4977470;28;20030;-37
2021/10/11 00:22:17;;;;;;;2.65;1.90;;;13.60;99.90;;;;;;4986850;28;20362;-37
2021/10/11 00:24:43;;;;;;;5.60;1.88;;;13.60;99.90;;;;;;4975714;28;20034;-37
2021/10/11 00:27:09;;;;;;;2.70;1.60;;;13.60;99.90;;;;;;4987587;28;20027;-37
2021/10/11 00:29:34;;;;;;;2.55;1.40;;;13.60;99.90;;;;;;4975709;28;20546;-37
2021/10/11 00:32:03;;;;;;;4.43;2.13;;;13.50;99.90;;;;;;4986930;28;20105;-37
2021/10/11 00:34:29;;;;;;;6.68;2.00;;;13.40;99.90;;;;;;4975027;28;20035;-37
2021/10/11 00:36:54;;;;;;;5.20;2.00;;;13.40;99.90;;;;;;4988044;28;20114;-36
2021/10/11 00:39:20;;;;;;;4.10;2.10;;;13.30;99.90;;;;;;4974726;28;20026;-37
2021/10/11 00:41:45;;;;;;;2.60;1.80;;;13.30;99.90;;;;;;4987322;28;20374;-37
2021/10/11 00:44:11;;;;;;;3.92;1.75;;;13.20;99.90;;;;;;4978659;28;20030;-36
2021/10/11 00:46:37;;;;;;;4.68;1.92;;;13.20;99.90;;;;;;4983628;28;20065;-38
2021/10/11 00:49:02;;;;;;;5.25;2.00;;;13.20;99.90;;;;;;4981463;28;20158;-37
2021/10/11 00:51:28;;;;;;;5.20;1.60;;;13.10;99.90;;;;;;4981859;28;20093;-36
2021/10/11 00:53:54;;;;;;;8.27;2.10;;;13.10;99.90;;;;;;4982387;28;20796;-37
2021/10/11 00:56:20;;;;;;;4.63;1.70;;;13.10;99.90;;;;;;4980148;28;20033;-37
2021/10/11 00:58:45;;;;;;;2.72;1.70;;;13.10;99.90;;;;;;4985392;28;20493;-37
2021/10/11 01:01:11;;;;;;;5.30;1.75;;;13.10;99.90;;;;;;4976297;28;20037;-38
2021/10/11 01:03:37;;;;;;;3.17;1.70;;;13.10;99.90;;;;;;4985679;28;20109;-37
2021/10/11 01:06:03;;;;;;;4.30;2.05;;;13.10;99.90;;;;;;4975592;28;20046;-38
2021/10/11 01:08:30;;;;;;;6.22;1.80;;;13.20;99.90;;;;;;4986592;28;20100;-39
2021/10/11 01:10:56;;;;;;;6.78;2.40;;;13.20;99.90;;;;;;4975950;28;20022;-38
2021/10/11 01:13:22;;;;;;;5.10;2.05;;;13.20;99.90;;;;;;4986835;28;20030;-38
2021/10/11 01:15:47;;;;;;;7.90;2.00;;;13.20;99.90;;;;;;4974645;28;20027;-37
2021/10/11 01:18:12;;;;;;;5.57;2.25;;;13.10;99.90;;;;;;4987172;28;20019;-38
2021/10/11 01:20:38;;;;;;;6.88;2.40;;;13.20;99.90;;;;;;4974910;28;20569;-37
2021/10/11 01:23:04;;;;;;;8.80;2.85;;;13.20;99.90;;;;;;4986913;28;20100;-38
2021/10/11 01:25:29;;;;;;;5.55;2.28;;;13.10;99.90;;;;;;4980504;28;20038;-37
2021/10/11 01:27:55;;;;;;;5.07;2.22;;;13.10;99.90;;;;;;4987300;28;20041;-39
2021/10/11 01:30:20;;;;;;;7.25;3.03;;;13.00;99.90;;;;;;4984342;28;20474;-38
2021/10/11 01:32:47;;;;;;;4.80;2.20;;;13.00;99.90;;;;;;4983974;28;20080;-37
2021/10/11 01:35:14;;;;;;;3.63;2.38;;;13.00;99.90;;;;;;4986142;28;20105;-36
2021/10/11 01:37:39;;;;;;;4.63;2.45;;;13.00;99.90;;;;;;4982397;28;20026;-39
2021/10/11 01:40:07;;;;;;;4.20;2.10;;;13.00;99.90;;;;;;4974707;28;20390;-37
2021/10/11 01:42:33;;;;;;;5.50;2.22;;;13.00;99.90;;;;;;4969517;28;20627;-39
2021/10/11 01:44:59;;;;;;;3.65;2.45;;;13.00;99.90;;;;;;4972908;28;20031;-39
2021/10/11 01:47:26;;;;;;;2.90;2.25;;;13.00;99.90;;;;;;4981740;28;20486;-38
2021/10/11 01:49:52;;;;;;;4.40;2.03;;;13.00;99.90;;;;;;4970268;28;20031;-37
2021/10/11 01:52:17;;;;;;;5.57;2.58;;;13.00;99.90;;;;;;4983414;28;20026;-37
2021/10/11 01:54:43;;;;;;;6.40;3.13;;;13.00;99.90;;;;;;4970352;28;20708;-38
2021/10/11 01:57:09;;;;;;;6.50;2.85;;;13.00;99.90;;;;;;4981897;28;20473;-37
2021/10/11 01:59:35;;;;;;;5.38;2.53;;;13.00;99.90;;;;;;4970964;28;20037;-38
2021/10/11 02:02:02;;;;;;;3.00;2.10;;;12.90;99.90;;;;;;4981589;28;20378;-38
2021/10/11 02:04:28;;;;;;;3.55;2.30;;;12.90;99.90;;;;;;4969829;28;20057;-37
2021/10/11 02:06:56;;;;;;;4.40;2.38;;;12.90;99.90;;;;;;4979705;28;20030;-38
2021/10/11 02:09:22;;;;;;;8.63;2.85;;;12.80;99.90;;;;;;4972550;28;20038;-38
2021/10/11 02:11:47;;;;;;;6.25;2.10;;;12.70;99.90;;;;;;4976673;28;20037;-40
2021/10/11 02:14:13;;;;;;;6.07;2.60;;;12.70;99.90;;;;;;4976559;28;20422;-38
2021/10/11 02:16:38;;;;;;;8.52;2.40;;;12.70;99.90;;;;;;4973388;28;20031;-37
2021/10/11 02:19:05;;;;;;;3.83;2.60;;;12.60;99.90;;;;;;4978248;28;20132;-38
2021/10/11 02:21:31;;;;;;;4.68;2.38;;;12.60;99.90;;;;;;4971862;28;20051;-38
2021/10/11 02:23:56;;;;;;;3.60;2.42;;;12.50;99.90;;;;;;4980549;28;20135;-39
2021/10/11 02:26:23;;;;;;;4.32;1.73;;;12.50;99.90;;;;;;4971429;28;20589;-37
2021/10/11 02:28:50;;;;;;;7.05;3.15;;;12.50;99.90;;;;;;4980868;28;20390;-37
2021/10/11 02:31:15;;;;;;;8.13;2.40;;;12.40;99.90;;;;;;4969991;28;20078;-39
2021/10/11 02:33:41;;;;;;;5.55;2.53;;;12.40;99.90;;;;;;4974843;28;20508;-37
2021/10/11 02:36:06;;;;;;;5.47;2.33;;;12.40;99.90;;;;;;4990260;28;20047;-39
2021/10/11 02:38:32;;;;;;;3.83;2.03;;;12.30;99.90;;;;;;4978359;28;20022;-39
2021/10/11 02:40:57;;;;;;;4.50;2.20;;;12.30;99.90;;;;;;4989665;28;20556;-38
2021/10/11 02:43:23;;;;;;;6.32;2.10;;;12.30;99.90;;;;;;4977704;28;20031;-39
2021/10/11 02:45:48;;;;;;;3.85;2.28;;;12.30;99.90;;;;;;4987365;28;20077;-38
2021/10/11 02:48:14;;;;;;;5.57;2.00;;;12.20;99.90;;;;;;4980957;28;20033;-37
2021/10/11 02:50:39;;;;;;;4.22;2.03;;;12.20;99.90;;;;;;4985324;28;20120;-36
2021/10/11 02:53:05;;;;;;;5.88;2.30;;;12.20;99.90;;;;;;4982764;28;20054;-39
2021/10/11 02:55:30;;;;;;;4.65;2.40;;;12.20;99.90;;;;;;4982405;28;20057;-39
2021/10/11 02:57:56;;;;;;;9.55;2.50;;;12.10;99.90;;;;;;4985818;28;20062;-38
2021/10/11 03:00:21;;;;;;;5.65;2.50;;;12.10;99.90;;;;;;4979660;28;20121;-37
2021/10/11 03:02:47;;;;;;;10.25;2.15;;;12.00;99.90;;;;;;4987369;28;20046;-37
2021/10/11 03:05:12;;;;;;;5.60;2.40;;;12.00;99.90;;;;;;4977822;28;20050;-36
2021/10/11 03:07:38;;;;;;;4.78;1.83;;;12.00;99.90;;;;;;4985982;28;20702;-39
2021/10/11 03:10:04;;;;;;;2.92;1.70;;;12.00;99.90;;;;;;4978412;28;20710;-38
2021/10/11 03:12:29;;;;;;;5.78;2.25;;;12.00;99.90;;;;;;4988190;28;20031;-38
2021/10/11 03:14:55;;;;;;;4.25;1.85;;;11.90;99.90;;;;;;4976356;28;20026;-38
2021/10/11 03:17:21;;;;;;;7.32;2.15;;;11.90;99.90;;;;;;4988753;28;20105;-37
2021/10/11 03:19:46;;;;;;;6.13;2.53;;;11.90;99.90;;;;;;4975555;28;20077;-37
2021/10/11 03:22:12;;;;;;;3.28;1.85;;;11.90;99.90;;;;;;4988727;28;20041;-38
2021/10/11 03:24:37;;;;;;;6.07;2.25;;;11.90;99.90;;;;;;4978015;28;20077;-36
2021/10/11 03:27:03;;;;;;;4.85;2.25;;;11.90;99.90;;;;;;4986093;28;20030;-37
2021/10/11 03:29:28;;;;;;;4.82;1.80;;;11.90;99.90;;;;;;4980429;28;20019;-37
2021/10/11 03:31:54;;;;;;;5.75;2.03;;;11.90;99.90;;;;;;4983271;28;20030;-38
2021/10/11 03:34:20;;;;;;;3.97;2.13;;;11.80;99.90;;;;;;4983487;28;20394;-37
2021/10/11 03:36:46;;;;;;;7.38;2.10;;;11.80;99.90;;;;;;4980554;28;20069;-37
2021/10/11 03:39:12;;;;;;;5.20;2.03;;;11.70;99.90;;;;;;4981593;28;20129;-38
2021/10/11 03:41:37;;;;;;;8.35;3.30;;;11.70;99.90;;;;;;4978481;28;20113;-38
2021/10/11 03:44:03;;;;;;;4.13;2.40;;;11.60;99.90;;;;;;4970107;28;20050;-38
2021/10/11 03:46:29;;;;;;;2.63;1.92;;;11.60;99.90;;;;;;4978383;28;20054;-37
2021/10/11 03:48:55;;;;;;;5.18;2.20;;;11.50;99.90;;;;;;4969589;28;20023;-38
2021/10/11 03:51:21;;;;;;;5.80;2.45;;;11.50;99.90;;;;;;4979962;28;20022;-37
2021/10/11 03:53:50;;;;;;;6.35;2.00;;;11.50;99.90;;;;;;4968519;28;20023;-37
2021/10/11 03:56:16;;;;;;;4.47;2.20;;;11.50;99.90;;;;;;4980471;28;20031;-37
2021/10/11 03:58:42;;;;;;;7.50;2.47;;;11.40;99.90;;;;;;4967888;28;20042;-38
2021/10/11 04:01:07;;;;;;;5.00;2.20;;;11.40;99.90;;;;;;4980328;28;20031;-38
2021/10/11 04:03:33;;;;;;;5.22;2.35;;;11.30;99.90;;;;;;4968199;28;20493;-38
2021/10/11 04:05:59;;;;;;;5.30;2.35;;;11.30;99.90;;;;;;4977715;28;20054;-39
2021/10/11 04:08:33;;;;;;;8.52;2.90;;;11.30;99.90;;;;;;4970916;28;20030;-38
2021/10/11 04:11:05;;;;;;;4.55;2.10;;;11.20;99.90;;;;;;4976111;28;20036;-37
2021/10/11 04:13:30;;;;;;;6.55;2.10;;;11.20;99.90;;;;;;4971411;28;20026;-38
2021/10/11 04:15:56;;;;;;;6.57;2.22;;;11.20;99.90;;;;;;4974095;28;20030;-37
2021/10/11 04:18:21;;;;;;;6.55;1.88;;;11.20;99.90;;;;;;4974278;28;20027;-36
2021/10/11 04:20:50;;;;;;;5.60;1.95;;;11.20;99.90;;;;;;4972016;28;20092;-38
2021/10/11 04:23:15;;;;;;;5.13;2.17;;;11.20;99.90;;;;;;4975511;28;20090;-37
2021/10/11 04:25:41;;;;;;;3.45;1.83;;;11.20;99.90;;;;;;4969093;28;20653;-37
2021/10/11 04:28:08;;;;;;;4.95;2.40;;;11.20;99.90;;;;;;4979313;28;20038;-38
2021/10/11 04:30:34;;;;;;;4.88;1.90;;;11.20;99.90;;;;;;4968212;28;20033;-38
2021/10/11 04:33:00;;;;;;;8.63;2.30;;;11.20;99.90;;;;;;4978828;28;20026;-37
2021/10/11 04:35:27;;;;;;;6.63;2.80;;;11.20;99.90;;;;;;4968787;28;20054;-39
2021/10/11 04:37:52;;;;;;;8.65;2.22;;;11.20;99.90;;;;;;4979514;28;20022;-37
2021/10/11 04:40:18;;;;;;;5.18;1.80;;;11.10;99.90;;;;;;4985128;28;20142;-37
2021/10/11 04:42:44;;;;;;;3.63;1.80;;;11.20;99.90;;;;;;4975045;28;20090;-38
2021/10/11 04:45:11;;;;;;;4.65;1.73;;;11.10;99.90;;;;;;4986875;28;20038;-39
2021/10/11 04:47:36;;;;;;;5.07;1.80;;;11.10;99.90;;;;;;4975243;28;20110;-38
2021/10/11 04:50:03;;;;;;;5.43;2.03;;;11.10;99.90;;;;;;4987545;28;20125;-37
2021/10/11 04:52:28;;;;;;;2.90;1.60;;;11.10;99.90;;;;;;4976967;28;20027;-37
2021/10/11 04:54:54;;;;;;;8.32;2.55;;;11.00;99.90;;;;;;4984486;28;20022;-37
2021/10/11 04:57:20;;;;;;;5.78;2.10;;;11.00;99.90;;;;;;4980708;28;20411;-37
2021/10/11 04:59:45;;;;;;;4.88;2.00;;;11.00;99.90;;;;;;4982557;28;20478;-36
2021/10/11 05:02:10;;;;;;;6.65;2.00;;;11.00;99.90;;;;;;4987199;28;20038;-37
2021/10/11 05:04:36;;;;;;;6.25;1.88;;;10.90;99.90;;;;;;4982750;28;20054;-43
2021/10/11 05:07:02;;;;;;;4.28;1.90;;;11.00;99.90;;;;;;4989316;28;20367;-38
2021/10/11 05:09:27;;;;;;;5.57;2.15;;;11.00;99.90;;;;;;4979809;28;20100;-37
2021/10/11 05:11:53;;;;;;;8.02;2.13;;;11.00;99.90;;;;;;4990050;28;20022;-37
2021/10/11 05:14:18;;;;;;;5.75;1.90;;;11.00;99.90;;;;;;4979387;28;20018;-39
2021/10/11 05:16:44;;;;;;;5.90;1.90;;;10.90;99.90;;;;;;4990441;28;20509;-38
2021/10/11 05:19:10;;;;;;;4.72;1.90;;;10.90;99.90;;;;;;4978566;28;20496;-37
2021/10/11 05:21:36;;;;;;;8.45;3.08;;;10.90;99.90;;;;;;4990304;28;20168;-39
2021/10/11 05:24:02;;;;;;;4.45;1.90;;;10.90;99.90;;;;;;4977984;28;20526;-38
2021/10/11 05:26:29;;;;;;;6.30;1.90;;;10.90;99.90;;;;;;4989657;28;20564;-39
2021/10/11 05:28:54;;;;;;;5.50;2.00;;;10.90;99.90;;;;;;4980152;28;20106;-37
2021/10/11 05:31:20;;;;;;;4.65;1.85;;;10.90;99.90;;;;;;4989637;28;20105;-37
2021/10/11 05:33:45;;;;;;;5.25;2.30;;;10.80;99.90;;;;;;4981589;28;20106;-37
2021/10/11 05:36:11;;;;;;;7.13;2.17;;;10.80;99.90;;;;;;4986976;28;20026;-38
2021/10/11 05:38:36;;;;;;;8.98;2.20;;;10.80;99.90;;;;;;4986807;28;20031;-37
2021/10/11 05:41:02;;;;;;;4.38;1.95;;;10.80;99.90;;;;;;4990233;28;20037;-38
2021/10/11 05:43:28;;;;;;;3.40;1.80;;;10.80;99.90;;;;;;4984341;28;20019;-39
2021/10/11 05:45:53;;;;;;;5.53;2.20;;;10.80;99.90;;;;;;4979899;28;20065;-37
2021/10/11 05:48:19;;;;;;;4.72;2.20;;;10.80;99.90;;;;;;4971626;28;20027;-37
2021/10/11 05:50:44;;;;;;;6.28;2.10;;;10.70;99.90;;;;;;4981317;28;20023;-36
2021/10/11 05:53:10;;;;;;;6.60;2.10;;;10.70;99.90;;;;;;4972204;28;20478;-38
2021/10/11 05:55:36;;;;;;;4.07;2.10;;;10.70;99.90;;;;;;4980641;28;20030;-46
2021/10/11 05:58:01;;;;;;;4.18;2.10;;;10.60;99.90;;;;;;4971345;28;20096;-38
2021/10/11 06:00:27;;;;;;;3.13;2.03;;;10.60;99.90;;;;;;4982050;28;20552;-38
2021/10/11 06:02:53;;;;;;;5.18;2.47;;;10.60;99.90;;;;;;4970910;28;20058;-37
2021/10/11 06:05:18;;;;;;;4.68;2.30;;;10.60;99.90;;;;;;4982510;28;20057;-37
2021/10/11 06:07:44;;;;;;;5.60;2.00;;;10.60;99.90;;;;;;4970057;28;20030;-37
2021/10/11 06:10:09;;;;;;;6.80;2.05;;;10.60;99.90;;;;;;4979697;28;20030;-36
2021/10/11 06:12:35;;;;;;;3.38;1.90;;;10.60;99.90;;;;;;4972023;28;20025;-37
2021/10/11 06:15:01;;;;;;;5.82;2.30;;;10.60;99.90;;;;;;4977946;28;20022;-38
2021/10/11 06:17:26;;;;;;;6.88;1.95;;;10.70;99.90;;;;;;4973800;28;20019;-37
2021/10/11 06:19:52;;;;;;;4.70;1.88;;;10.70;99.90;;;;;;4975480;28;20031;-37
2021/10/11 06:22:18;;;;;;;6.25;1.90;;;10.70;99.90;;;;;;4977554;28;20026;-36
2021/10/11 06:24:44;;;;;;;6.30;2.22;;;10.80;99.90;;;;;;4970855;28;20037;-36
2021/10/11 06:27:09;;;;;;;3.95;1.92;;;10.80;99.90;;;;;;4980835;28;20034;-37
2021/10/11 06:29:35;;;;;;;5.85;1.85;;;10.90;99.90;;;;;;4970339;28;20034;-37
2021/10/11 06:32:00;;;;;;;6.55;1.70;;;10.90;99.90;;;;;;4981314;28;20019;-38
2021/10/11 06:34:26;;;;;;;5.22;1.80;;;11.00;99.90;;;;;;4970356;28;20023;-37
2021/10/11 06:36:51;;;;;;;5.05;1.83;;;11.00;99.90;;;;;;4981101;28;20058;-38
2021/10/11 06:39:17;;;;;;;4.88;2.13;;;11.10;99.90;;;;;;4977503;28;20117;-38
2021/10/11 06:41:43;;;;;;;7.07;2.42;;;11.10;99.90;;;;;;4976526;28;20030;-37
2021/10/11 06:44:09;;;;;;;5.85;2.40;;;11.20;99.90;;;;;;4989439;28;20468;-38
2021/10/11 06:46:34;;;;;;;10.32;3.47;;;11.20;99.90;;;;;;4976797;28;20031;-39
2021/10/11 06:49:00;;;;;;;7.53;2.78;;;11.20;99.90;;;;;;4988640;28;20431;-40
2021/10/11 06:51:25;;;;;;;5.28;3.17;;;11.30;99.90;;;;;;4978945;28;20040;-38
2021/10/11 06:53:51;;;;;;;5.78;2.38;;;11.30;99.90;;;;;;4986401;28;20034;-38
2021/10/11 06:56:17;;;;;;;7.25;2.65;;;11.30;99.90;;;;;;4982655;28;20038;-37
2021/10/11 06:58:42;;;;;;;4.47;2.15;;;11.40;99.90;;;;;;4983091;28;20449;-38
2021/10/11 07:01:08;;;;;;;5.10;2.05;;;11.40;99.90;;;;;;4984836;28;20117;-39
2021/10/11 07:03:36;;;;;;;4.53;2.00;;;11.40;99.90;;;;;;4980584;28;20033;-37
2021/10/11 07:06:05;;;;;;;6.38;2.15;;;11.50;99.90;;;;;;4986544;28;20050;-38
2021/10/11 07:08:32;;;;;;;7.78;2.10;;;11.50;99.90;;;;;;4978430;28;20041;-39
2021/10/11 07:10:58;;;;;;;7.50;1.90;;;11.50;99.90;;;;;;4987833;28;20110;-38
2021/10/11 07:13:24;;;;;;;5.65;2.10;;;11.50;99.90;;;;;;4976697;28;20137;-37
2021/10/11 07:15:50;;;;;;;4.60;1.90;;;11.60;99.90;;;;;;4987824;28;20077;-38
2021/10/11 07:18:16;;;;;;;3.78;2.00;;;11.60;99.90;;;;;;4977785;28;20022;-36
2021/10/11 07:20:45;;;;;;;3.20;2.00;;;11.60;99.90;;;;;;4987574;28;20041;-37
2021/10/11 07:23:12;;;;;;;4.03;1.90;;;11.70;99.90;;;;;;4975751;28;20061;-37
2021/10/11 07:25:42;;;;;;;4.72;2.00;;;11.70;99.90;;;;;;4988419;28;20093;-37
2021/10/11 07:28:08;;;;;;;3.70;1.88;;;11.80;99.90;;;;;;4976503;28;20042;-37
2021/10/11 07:30:34;;;;;;;4.47;1.67;;;11.80;99.90;;;;;;4988002;28;20046;-36
2021/10/11 07:33:01;;;;;;;6.78;2.60;;;11.80;99.90;;;;;;4976940;28;20030;-37
2021/10/11 07:35:27;;;;;;;4.93;2.85;;;11.90;99.90;;;;;;4986667;28;20417;-38
2021/10/11 07:37:53;;;;;;;6.00;3.13;;;11.90;99.90;;;;;;4980109;28;20030;-37
2021/10/11 07:40:20;;;;;;;5.18;2.85;;;11.90;99.90;;;;;;4968658;28;20034;-39
2021/10/11 07:42:46;;;;;;;5.57;2.13;;;11.90;99.90;;;;;;4974606;28;20033;-37
2021/10/11 07:45:12;;;;;;;4.57;2.30;;;12.00;99.90;;;;;;4975106;28;20042;-37
2021/10/11 07:47:37;;;;;;;5.18;2.35;;;12.00;99.90;;;;;;4970815;28;20034;-37
2021/10/11 07:50:04;;;;;;;4.90;2.58;;;12.10;99.90;;;;;;4977401;28;20027;-38
2021/10/11 07:52:29;;;;;;;6.18;2.20;;;12.10;99.90;;;;;;4969527;28;20050;-38
2021/10/11 07:54:55;;;;;;;6.47;2.22;;;12.20;99.90;;;;;;4979198;28;20061;-39
2021/10/11 07:57:20;;;;;;;6.00;2.33;;;12.10;99.90;;;;;;4970432;28;20478;-38
2021/10/11 07:59:46;;;;;;;4.65;2.00;;;12.20;99.90;;;;;;4979027;28;20332;-38
2021/10/11 08:02:11;;;;;;;5.15;2.30;;;12.10;99.90;;;;;;4968040;28;20390;-39
2021/10/11 08:04:37;;;;;;;4.25;2.08;;;12.20;99.90;;;;;;4979815;28;20057;-38
2021/10/11 08:07:03;;;;;;;4.22;1.75;;;12.20;99.90;;;;;;4969142;28;20031;-38
2021/10/11 08:09:28;;;;;;;6.50;2.28;;;12.30;99.90;;;;;;4979162;28;20030;-38
2021/10/11 08:11:54;;;;;;;5.40;2.40;;;12.40;99.90;;;;;;4969251;28;20045;-38
2021/10/11 08:14:20;;;;;;;5.15;1.85;;;12.40;99.90;;;;;;4978286;28;20037;-38
2021/10/11 08:16:46;;;;;;;6.53;2.15;;;12.50;99.90;;;;;;4969058;28;20446;-38
2021/10/11 08:19:11;;;;;;;5.07;1.80;;;12.60;99.90;;;;;;4976417;28;20088;-38
2021/10/11 08:21:38;;;;;;;4.68;1.90;;;12.70;99.90;;;;;;4972605;28;20085;-37
2021/10/11 08:24:04;;;;;;;3.92;1.90;;;12.70;99.90;;;;;;4972856;28;20023;-38
2021/10/11 08:26:31;;;;;;;4.78;1.90;;;12.80;99.90;;;;;;4974497;28;20049;-38
2021/10/11 08:28:59;;;;;;;3.63;1.77;;;12.90;99.90;;;;;;4971729;28;20103;-38
2021/10/11 08:31:25;;;;;;;4.50;1.65;;;12.90;99.90;;;;;;4976605;28;20031;-38
2021/10/11 08:33:50;;;;;;;5.43;2.10;;;13.00;99.90;;;;;;4971401;28;20026;-38
2021/10/11 08:36:16;;;;;;;4.80;1.90;;;13.10;99.90;;;;;;4982822;28;20077;-38
2021/10/11 08:38:43;;;;;;;5.90;1.90;;;13.10;99.90;;;;;;4971737;28;20035;-36
2021/10/11 08:41:10;;;;;;;5.50;1.85;;;13.10;99.90;;;;;;4983357;28;20033;-37
2021/10/11 08:43:37;;;;;;;3.63;1.50;;;13.20;99.90;;;;;;4971242;28;20030;-38
2021/10/11 08:46:04;;;;;;;4.82;1.55;;;13.20;99.90;;;;;;4984009;28;20035;-37
2021/10/11 08:48:34;;;;;;;5.95;2.10;;;13.30;99.90;;;;;;4971852;28;20031;-37
2021/10/11 08:51:00;;;;;;;6.53;2.40;;;13.30;99.90;;;;;;4983500;28;20121;-37
2021/10/11 08:53:26;;;;;;;5.60;2.00;;;13.40;99.90;;;;;;4971722;28;20101;-38
2021/10/11 08:55:51;;;;;;;4.50;1.80;;;13.40;99.90;;;;;;4983453;28;20688;-38
2021/10/11 08:58:17;;;;;;;4.50;1.73;;;13.50;99.90;;;;;;4972341;28;20026;-38
2021/10/11 09:00:43;;;;;;;5.95;1.65;;;13.60;99.90;;;;;;4980054;28;20088;-37
2021/10/11 09:03:10;;;;;;;7.88;2.13;;;13.60;99.90;;;;;;4974978;28;20033;-37
2021/10/11 09:05:41;;;;;;;4.22;1.52;;;13.70;99.90;;;;;;4976857;28;20031;-40
2021/10/11 09:08:11;;;;;;;5.22;1.95;;;13.70;99.90;;;;;;4977167;28;20027;-37
2021/10/11 09:10:53;;;;;;;5.10;1.95;;;13.80;99.90;;;;;;4976567;28;20026;-37
2021/10/11 09:13:41;;;;;;;6.53;2.08;;;13.80;99.90;;;;;;4975867;28;20372;-38
2021/10/11 09:16:22;;;;;;;8.02;2.25;;;13.90;99.90;;;;;;4979486;28;20097;-36
2021/10/11 09:18:54;;;;;;;7.05;2.33;;;13.90;99.90;;;;;;4973034;28;20423;-42
2021/10/11 09:21:34;;;;;;;6.65;2.17;;;13.90;99.90;;;;;;4979610;28;20035;-37
2021/10/11 09:24:08;;;;;;;3.40;1.40;;;13.90;99.90;;;;;;4972652;28;20385;-37
2021/10/11 09:26:48;;;;;;;4.47;1.67;;;14.00;99.90;;;;;;4969694;28;20114;-37
2021/10/11 09:29:15;;;;;;;7.32;2.10;;;14.10;99.90;;;;;;4971522;28;20026;-37
2021/10/11 09:31:45;;;;;;;8.93;2.00;;;14.20;99.90;;;;;;4972033;28;20031;-39
2021/10/11 09:34:17;;;;;;;8.82;2.47;;;14.30;99.90;;;;;;4970108;28;20034;-38
2021/10/11 09:36:43;;;;;;;8.07;2.35;;;14.30;99.90;;;;;;4974669;28;20046;-37
2021/10/11 09:39:08;;;;;;;5.97;1.70;;;14.40;99.90;;;;;;4981654;28;20030;-37
2021/10/11 09:41:34;;;;;;;8.98;1.80;;;14.40;99.90;;;;;;4974281;28;20849;-37
2021/10/11 09:44:10;;;;;;;7.90;2.22;;;14.40;99.90;;;;;;4978761;28;20042;-37
2021/10/11 09:46:43;;;;;;;6.10;2.17;;;14.40;99.90;;;;;;4978019;28;20062;-37
2021/10/11 09:49:09;;;;;;;6.70;2.10;;;14.50;99.90;;;;;;4978346;28;20118;-37
2021/10/11 09:51:35;;;;;;;9.52;2.20;;;14.50;99.90;;;;;;4972039;28;20111;-37
2021/10/11 09:54:01;;;;;;;5.22;1.75;;;14.60;99.90;;;;;;4980610;28;20055;-38
2021/10/11 09:56:28;;;;;;;7.72;2.10;;;14.60;99.90;;;;;;4971980;28;20018;-38
2021/10/11 09:58:54;;;;;;;4.70;1.80;;;14.60;99.90;;;;;;4981386;28;20082;-37
2021/10/11 10:01:22;;;;;;;5.22;2.03;;;14.70;99.90;;;;;;4971156;28;20027;-37
2021/10/11 10:03:48;;;;;;;5.72;1.80;;;14.70;99.90;;;;;;4974931;28;20045;-37
2021/10/11 10:06:14;;;;;;;6.90;1.77;;;14.80;99.90;;;;;;4989813;28;20093;-38
2021/10/11 10:08:41;;;;;;;7.20;1.90;;;14.90;99.90;;;;;;4976423;28;20107;-37
2021/10/11 10:11:07;;;;;;;5.50;2.00;;;14.90;99.90;;;;;;4990380;28;20027;-40
2021/10/11 10:13:46;;;;;;;6.18;2.10;;;14.90;99.90;;;;;;4977253;28;20066;-38
2021/10/11 10:16:13;;;;;;;5.07;1.80;;;14.90;99.90;;;;;;4970045;28;20406;-38
2021/10/11 10:18:46;;;;;;;4.75;1.85;;;15.00;99.90;;;;;;4981739;28;20109;-37
2021/10/11 10:21:14;;;;;;;6.90;2.10;;;14.90;99.90;;;;;;4970617;28;20039;-37
2021/10/11 10:23:43;;;;;;;5.65;2.00;;;15.00;99.90;;;;;;4980228;28;20034;-38
2021/10/11 10:26:13;;;;;;;5.25;2.72;;;15.00;99.90;;;;;;4972744;28;20089;-37
2021/10/11 10:28:47;;;;;;;7.35;2.53;;;15.10;99.90;;;;;;4978481;28;20026;-37
2021/10/11 10:31:31;;;;;;;4.10;1.73;;;15.10;99.90;;;;;;4973334;28;20081;-37
2021/10/11 10:33:57;;;;;;;7.35;1.80;;;15.10;99.90;;;;;;4980813;28;20015;-38
2021/10/11 10:36:29;;;;;;;5.25;1.70;;;15.10;99.90;;;;;;4971639;28;20037;-39
2021/10/11 10:39:08;;;;;;;6.38;1.92;;;15.10;99.90;;;;;;4978080;28;20113;-38
2021/10/11 10:41:35;;;;;;;7.70;2.80;;;15.00;99.90;;;;;;4970378;28;20117;-38
2021/10/11 10:44:15;;;;;;;7.38;2.08;;;14.90;99.90;;;;;;4977156;28;20052;-39
2021/10/11 10:46:54;;;;;;;7.97;2.35;;;15.00;99.90;;;;;;4972232;28;20064;-37
2021/10/11 10:49:33;;;;;;;4.82;1.70;;;15.00;99.90;;;;;;4978529;28;20496;-37
2021/10/11 10:52:09;;;;;;;6.47;1.90;;;15.10;99.90;;;;;;4970968;28;20019;-37
2021/10/11 10:54:37;;;;;;;6.25;1.83;;;15.10;99.90;;;;;;4978233;28;20473;-37
2021/10/11 10:57:04;;;;;;;11.18;1.65;;;15.10;99.90;;;;;;4970578;28;20355;-38
2021/10/11 10:59:30;;;;;;;6.03;1.50;;;15.20;99.90;;;;;;4976610;28;20088;-38
2021/10/11 11:02:09;;;;;;;7.22;1.77;;;15.20;99.90;;;;;;4974144;28;20027;-38
2021/10/11 11:04:36;;;;;;;7.40;1.23;;;15.20;99.90;;;;;;4974066;28;20046;-38
2021/10/11 11:07:07;;;;;;;2.97;1.20;;;15.20;99.90;;;;;;4975616;28;20030;-37
2021/10/11 11:09:45;;;;;;;11.13;1.85;;;15.20;99.90;;;;;;4970297;28;20060;-37
2021/10/11 11:12:12;;;;;;;10.25;1.85;;;15.20;99.90;;;;;;4984099;28;20031;-39
2021/10/11 11:14:43;;;;;;;7.43;1.58;;;15.10;99.90;;;;;;4984332;28;20029;-39
2021/10/11 11:17:13;;;;;;;5.88;1.58;;;15.10;99.90;;;;;;4976686;28;20482;-38
2021/10/11 11:19:41;;;;;;;5.35;1.38;;;15.10;99.90;;;;;;4970888;28;20031;-38
2021/10/11 11:22:07;;;;;;;4.82;1.10;;;15.10;99.90;;;;;;4978028;28;20030;-38
2021/10/11 11:24:34;;;;;;;4.53;1.50;;;15.20;99.90;;;;;;4970236;28;20019;-38
2021/10/11 11:27:02;;;;;;;3.45;1.00;;;15.20;99.90;;;;;;4979175;28;20042;-39
2021/10/11 11:29:29;;;;;;;4.63;1.20;;;15.30;99.90;;;;;;4969860;28;20049;-38
2021/10/11 11:31:55;;;;;;;4.70;1.10;;;15.40;99.90;;;;;;4979288;28;20037;-38
2021/10/11 11:34:21;;;;;;;5.47;1.05;;;15.40;99.90;;;;;;4969081;28;20019;-39
2021/10/11 11:36:55;;;;;;;5.30;1.30;;;15.50;99.90;;;;;;4979662;28;20025;-38
2021/10/11 11:39:24;;;;;;;5.60;1.27;;;15.60;99.90;;;;;;4973259;28;20022;-37
2021/10/11 11:41:55;;;;;;;4.15;1.20;;;15.70;99.90;;;;;;4975301;28;20072;-37
2021/10/11 11:44:27;;;;;;;4.63;1.10;;;15.80;99.90;;;;;;4988858;28;20023;-37
2021/10/11 11:47:26;;;;;;;3.05;0.90;;;15.90;99.90;;;;;;4975314;28;20717;-37
2021/10/11 11:49:52;;;;;;;3.30;1.00;;;15.90;99.90;;;;;;4977084;28;20125;-38
2021/10/11 11:52:18;;;;;;;5.35;1.15;;;16.00;99.90;;;;;;4972032;28;20550;-37
2021/10/11 11:54:54;;;;;;;5.25;1.20;;;16.10;99.90;;;;;;4987596;28;20509;-38
2021/10/11 11:57:20;;;;;;;8.52;1.83;;;16.10;99.90;;;;;;4975633;28;20058;-37
2021/10/11 11:59:47;;;;;;;3.50;1.20;;;16.10;99.90;;;;;;4984277;28;20060;-37
2021/10/11 12:02:14;;;;;;;2.45;0.93;;;16.10;99.90;;;;;;4974308;28;20039;-37
2021/10/11 12:04:43;;;;;;;3.25;1.10;;;15.90;99.90;;;;;;4986145;28;20046;-39
2021/10/11 12:07:11;;;;;;;6.25;1.10;;;15.90;99.90;;;;;;4976281;28;20042;-38
2021/10/11 12:09:37;;;;;;;4.53;0.80;;;15.90;99.90;;;;;;4985144;28;20037;-37
2021/10/11 12:12:06;;;;;;;3.70;1.00;;;15.90;99.90;;;;;;4978298;28;20023;-38
2021/10/11 12:14:33;;;;;;;5.22;1.00;;;16.00;99.90;;;;;;4982324;28;20497;-38
2021/10/11 12:17:08;;;;;;;4.50;1.10;;;16.10;99.90;;;;;;4980993;28;20110;-37
2021/10/11 12:19:38;;;;;;;4.18;0.90;;;16.20;99.90;;;;;;4982965;28;20029;-39
2021/10/11 12:22:04;;;;;;;4.53;1.45;;;16.30;99.90;;;;;;4981012;28;20019;-37
2021/10/11 12:24:32;;;;;;;4.40;1.15;;;16.40;99.90;;;;;;4980825;28;20046;-40
2021/10/11 12:27:00;;;;;;;4.07;1.08;;;16.50;99.90;;;;;;4984590;28;20105;-36
2021/10/11 12:29:29;;;;;;;5.82;1.40;;;16.40;99.90;;;;;;4978146;28;20110;-37
2021/10/11 12:32:07;;;;;;;3.47;0.90;;;16.40;99.90;;;;;;4985323;28;20548;-38
2021/10/11 12:34:39;;;;;;;4.50;0.90;;;16.40;99.90;;;;;;4978968;28;20125;-37
2021/10/11 12:37:10;;;;;;;5.03;1.00;;;16.40;99.90;;;;;;4984962;28;20378;-37
2021/10/11 12:39:37;;;;;;;2.97;1.10;;;16.30;99.90;;;;;;4971421;28;20852;-37
2021/10/11 12:42:07;;;;;;;3.58;0.93;;;16.20;99.90;;;;;;4969667;28;20385;-39
2021/10/11 12:44:39;;;;;;;11.00;1.80;;;16.00;99.90;;;;;;4977874;28;20092;-40